createdAt,value
2022-09-05T00:01:27.944Z,3.35
2022-09-05T00:04:25.302Z,4.15
2022-09-05T00:07:05.867Z,3.85
2022-09-05T00:09:51.591Z,3.95
2022-09-05T00:12:18.840Z,4.10
2022-09-05T00:15:18.288Z,4.30
2022-09-05T00:20:57.217Z,4.13
2022-09-05T00:24:31.664Z,4.38
2022-09-05T00:24:50.221Z,4.10
2022-09-05T00:27:46.867Z,3.95
2022-09-05T00:31:07.635Z,4.00
2022-09-05T00:33:16.745Z,4.10
2022-09-05T00:36:15.932Z,4.10
2022-09-05T00:38:43.258Z,3.58
2022-09-05T00:41:13.712Z,4.05
2022-09-05T00:43:46.078Z,3.72
2022-09-05T00:46:24.546Z,3.25
2022-09-05T00:49:06.872Z,4.47
2022-09-05T00:51:58.353Z,3.60
2022-09-05T00:54:55.643Z,3.80
2022-09-05T00:58:03.147Z,4.13
2022-09-05T01:00:33.464Z,3.00
2022-09-05T01:03:31.779Z,3.03
2022-09-05T01:06:09.506Z,3.22
2022-09-05T01:08:54.895Z,3.30
2022-09-05T01:11:44.011Z,3.20
2022-09-05T01:14:35.242Z,3.50
2022-09-05T01:17:11.225Z,3.65
2022-09-05T01:20:04.813Z,3.70
2022-09-05T01:23:08.808Z,3.45
2022-09-05T01:25:52.482Z,3.80
2022-09-05T01:29:16.104Z,3.58
2022-09-05T01:31:24.079Z,3.92
2022-09-05T01:34:00.922Z,3.60
2022-09-05T01:36:46.071Z,3.72
2022-09-05T01:40:12.528Z,3.75
2022-09-05T01:42:34.622Z,3.75
2022-09-05T01:45:03.336Z,3.33
2022-09-05T01:47:50.599Z,3.33
2022-09-05T01:50:48.410Z,3.42
2022-09-05T01:53:27.588Z,3.33
2022-09-05T01:56:24.945Z,3.30
2022-09-05T01:59:16.465Z,3.53
2022-09-05T02:02:01.944Z,3.72
2022-09-05T02:05:01.182Z,3.72
2022-09-05T02:07:44.870Z,3.63
2022-09-05T02:10:18.850Z,3.70
2022-09-05T02:12:58.421Z,4.23
2022-09-05T02:15:59.861Z,3.80
2022-09-05T02:19:06.374Z,3.47
2022-09-05T02:21:42.250Z,3.28
2022-09-05T02:24:23.793Z,3.33
2022-09-05T02:27:05.983Z,3.35
2022-09-05T02:29:39.995Z,3.25
2022-09-05T02:32:32.150Z,4.33
2022-09-05T02:35:13.894Z,3.33
2022-09-05T02:39:09.140Z,3.85
2022-09-05T02:45:16.343Z,3.85
2022-09-05T02:45:20.773Z,3.60
2022-09-05T02:46:48.280Z,3.72
2022-09-05T02:52:16.791Z,3.20
2022-09-05T02:57:24.897Z,4.03
2022-09-05T02:57:38.338Z,3.40
2022-09-05T02:58:09.000Z,3.20
2022-09-05T03:00:44.773Z,3.88
2022-09-05T03:03:50.054Z,3.30
2022-09-05T03:06:26.021Z,3.42
2022-09-05T03:09:17.183Z,2.63
2022-09-05T03:11:53.682Z,2.95
2022-09-05T03:14:42.461Z,3.30
2022-09-05T03:17:09.742Z,3.10
2022-09-05T03:19:54.451Z,3.15
2022-09-05T03:22:28.838Z,3.78
2022-09-05T03:25:11.359Z,3.63
2022-09-05T03:28:16.087Z,3.67
2022-09-05T03:31:01.572Z,3.28
2022-09-05T03:33:52.203Z,3.78
2022-09-05T03:36:40.139Z,3.28
2022-09-05T03:39:19.063Z,3.50
2022-09-05T03:42:14.781Z,3.58
2022-09-05T03:44:48.538Z,3.35
2022-09-05T03:47:39.282Z,3.50
2022-09-05T03:57:06.951Z,3.78
2022-09-05T03:57:15.450Z,3.17
2022-09-05T03:57:18.759Z,3.40
2022-09-05T04:00:02.513Z,3.63
2022-09-05T04:07:45.754Z,3.55
2022-09-05T04:08:26.623Z,3.50
2022-09-05T04:08:34.295Z,3.30
2022-09-05T04:11:07.909Z,3.40
2022-09-05T04:13:51.546Z,3.65
2022-09-05T04:16:30.623Z,3.83
2022-09-05T04:19:36.494Z,3.17
2022-09-05T04:22:24.975Z,3.83
2022-09-05T04:25:07.260Z,3.33
2022-09-05T04:27:57.135Z,3.30
2022-09-05T04:30:43.092Z,3.05
2022-09-05T04:33:35.867Z,3.40
2022-09-05T04:36:21.068Z,3.05
2022-09-05T04:39:24.111Z,3.73
2022-09-05T04:42:09.921Z,3.33
2022-09-05T04:44:55.867Z,3.88
2022-09-05T04:47:28.226Z,3.17
2022-09-05T04:49:59.275Z,3.60
2022-09-05T04:52:45.067Z,3.30
2022-09-05T04:55:14.485Z,3.40
2022-09-05T04:58:21.429Z,3.83
2022-09-05T05:05:59.811Z,3.60
2022-09-05T05:06:04.445Z,3.58
2022-09-05T05:06:46.666Z,3.60
2022-09-05T05:09:19.175Z,3.88
2022-09-05T05:17:54.384Z,3.97
2022-09-05T05:18:10.548Z,3.53
2022-09-05T05:18:12.193Z,3.75
2022-09-05T05:20:48.290Z,3.17
2022-09-05T05:23:17.266Z,3.47
2022-09-05T05:25:52.175Z,3.50
2022-09-05T05:30:59.843Z,3.85
2022-09-05T05:33:34.070Z,3.85
2022-09-05T05:36:02.455Z,4.05
2022-09-05T05:38:48.462Z,3.97
2022-09-05T05:41:29.363Z,4.00
2022-09-05T05:43:57.626Z,3.50
2022-09-05T05:46:36.159Z,3.80
2022-09-05T05:49:24.817Z,3.78
2022-09-05T05:52:01.476Z,4.32
2022-09-05T05:54:35.626Z,3.88
2022-09-05T05:57:22.405Z,3.90
2022-09-05T06:00:27.673Z,3.90
2022-09-05T06:03:25.554Z,3.83
2022-09-05T06:06:28.847Z,3.05
2022-09-05T06:14:48.124Z,3.35
2022-09-05T06:15:03.578Z,3.30
2022-09-05T06:18:07.546Z,3.20
2022-09-05T06:22:04.146Z,3.10
2022-09-05T06:24:21.439Z,3.25
2022-09-05T06:27:03.808Z,3.20
2022-09-05T06:29:38.265Z,3.15
2022-09-05T06:35:24.042Z,3.35
2022-09-05T06:38:19.507Z,2.72
2022-09-05T06:40:58.702Z,3.15
2022-09-05T06:44:04.542Z,2.85
2022-09-05T06:46:54.621Z,3.00
2022-09-05T06:49:45.908Z,2.83
2022-09-05T06:52:29.720Z,3.40
2022-09-05T06:55:30.480Z,3.30
2022-09-05T06:58:35.102Z,3.38
2022-09-05T07:01:02.445Z,3.30
2022-09-05T07:04:33.242Z,3.50
2022-09-05T07:09:53.079Z,3.78
2022-09-05T07:12:41.000Z,3.38
2022-09-05T07:15:42.135Z,3.20
2022-09-05T07:18:22.120Z,3.40
2022-09-05T07:21:16.521Z,3.78
2022-09-05T07:24:09.215Z,3.67
2022-09-05T07:26:53.431Z,3.38
2022-09-05T07:29:52.433Z,3.20
2022-09-05T07:32:35.963Z,3.10
2022-09-05T07:35:03.543Z,3.03
2022-09-05T07:37:38.394Z,3.53
2022-09-05T07:43:10.538Z,3.10
2022-09-05T07:45:52.173Z,2.67
2022-09-05T07:55:07.981Z,2.90
2022-09-05T07:56:52.456Z,2.85
2022-09-05T07:57:02.495Z,2.70
2022-09-05T07:59:26.368Z,2.65
2022-09-05T08:01:53.827Z,2.80
2022-09-05T08:04:24.220Z,3.15
2022-09-05T08:07:49.322Z,2.50
2022-09-05T08:10:05.423Z,2.22
2022-09-05T08:13:23.661Z,2.78
2022-09-05T08:16:15.256Z,2.60
2022-09-05T08:18:47.639Z,2.40
2022-09-05T08:21:28.053Z,2.60
2022-09-05T08:24:21.019Z,2.42
2022-09-05T08:26:51.178Z,2.92
2022-09-05T08:29:37.886Z,2.60
2022-09-05T08:32:08.792Z,2.30
2022-09-05T08:34:45.884Z,2.33
2022-09-05T08:37:21.672Z,2.30
2022-09-05T08:40:10.120Z,2.28
2022-09-05T08:43:38.081Z,2.38
2022-09-05T08:46:41.810Z,2.28
2022-09-05T08:49:36.463Z,2.30
2022-09-05T08:52:08.450Z,2.20
2022-09-05T08:55:00.064Z,2.45
2022-09-05T08:57:50.750Z,2.30
2022-09-05T09:00:20.839Z,2.42
2022-09-05T09:03:03.926Z,2.47
2022-09-05T09:06:12.210Z,2.35
2022-09-05T09:09:05.851Z,1.85
2022-09-05T09:11:42.402Z,2.20
2022-09-05T09:14:32.310Z,2.10
2022-09-05T09:17:20.719Z,2.25
2022-09-05T09:20:26.751Z,2.00
2022-09-05T09:23:07.021Z,1.90
2022-09-05T09:26:16.854Z,2.00
2022-09-05T09:28:56.103Z,2.05
2022-09-05T09:31:43.490Z,1.60
2022-09-05T09:34:26.252Z,1.77
2022-09-05T09:36:59.546Z,1.95
2022-09-05T09:39:45.237Z,2.78
2022-09-05T09:42:34.668Z,1.90
2022-09-05T09:45:27.746Z,1.75
2022-09-05T09:48:24.241Z,1.85
2022-09-05T09:51:29.143Z,2.00
2022-09-05T09:54:06.231Z,1.90
2022-09-05T09:57:07.500Z,1.80
2022-09-05T09:59:56.535Z,1.88
2022-09-05T10:06:30.262Z,1.98
2022-09-05T10:10:44.656Z,1.67
2022-09-05T10:10:52.207Z,1.73
2022-09-05T10:11:54.671Z,1.85
2022-09-05T10:14:49.557Z,1.70
2022-09-05T10:17:36.971Z,1.90
2022-09-05T10:20:11.534Z,1.88
2022-09-05T10:22:46.024Z,1.60
2022-09-05T10:25:51.703Z,1.70
2022-09-05T10:29:36.891Z,1.85
2022-09-05T10:35:00.741Z,1.80
2022-09-05T10:35:27.509Z,1.83
2022-09-05T10:38:04.362Z,1.73
2022-09-05T10:41:20.371Z,1.73
2022-09-05T10:43:32.286Z,1.90
2022-09-05T10:46:50.875Z,1.90
2022-09-05T10:49:30.148Z,1.83
2022-09-05T10:52:18.780Z,1.80
2022-09-05T10:55:14.758Z,1.90
2022-09-05T10:57:45.802Z,1.80
2022-09-05T11:02:19.954Z,1.55
2022-09-05T11:03:33.499Z,1.80
2022-09-05T11:06:09.044Z,1.67
2022-09-05T11:08:49.950Z,1.80
2022-09-05T11:11:28.769Z,1.80
2022-09-05T11:14:04.978Z,1.90
2022-09-05T11:16:45.718Z,1.70
2022-09-05T11:19:28.714Z,1.77
2022-09-05T11:22:23.226Z,1.80
2022-09-05T11:24:56.875Z,1.70
2022-09-05T11:27:47.563Z,1.63
2022-09-05T11:30:29.019Z,1.70
2022-09-05T11:39:41.035Z,1.92
2022-09-05T11:39:52.873Z,1.65
2022-09-05T11:39:57.726Z,1.75
2022-09-05T11:43:01.354Z,1.80
2022-09-05T11:46:08.662Z,1.73
2022-09-05T11:48:53.621Z,1.70
2022-09-05T11:51:33.419Z,1.50
2022-09-05T11:54:19.666Z,1.95
2022-09-05T11:57:44.087Z,1.80
2022-09-05T12:00:32.673Z,1.90
2022-09-05T12:03:59.259Z,1.90
2022-09-05T12:06:49.550Z,1.80
2022-09-05T12:09:54.818Z,1.83
2022-09-05T12:13:01.363Z,1.70
2022-09-05T12:15:34.004Z,1.48
2022-09-05T12:18:24.224Z,2.03
2022-09-05T12:21:21.863Z,1.60
2022-09-05T12:25:16.075Z,1.85
2022-09-05T12:27:36.777Z,1.80
2022-09-05T12:29:51.209Z,1.80
2022-09-05T12:34:02.721Z,1.92
2022-09-05T12:39:38.086Z,1.80
2022-09-05T12:40:58.023Z,1.63
2022-09-05T12:41:44.183Z,1.75
2022-09-05T12:44:39.175Z,1.90
2022-09-05T12:46:56.408Z,1.65
2022-09-05T12:52:33.860Z,1.90
2022-09-05T12:55:09.267Z,1.90
2022-09-05T13:00:24.259Z,1.98
2022-09-05T13:03:06.313Z,1.52
2022-09-05T13:03:29.802Z,1.52
2022-09-05T13:06:09.264Z,1.90
2022-09-05T13:08:49.072Z,1.83
2022-09-05T13:14:53.447Z,1.60
2022-09-05T13:14:56.090Z,1.45
2022-09-05T13:17:22.167Z,1.58
2022-09-05T13:19:52.015Z,1.70
2022-09-05T13:22:21.167Z,2.00
2022-09-05T13:24:58.063Z,1.50
2022-09-05T13:27:28.094Z,1.50
2022-09-05T13:36:01.304Z,1.80
2022-09-05T13:37:58.604Z,1.77
2022-09-05T13:38:14.436Z,1.85
2022-09-05T13:39:00.774Z,1.80
2022-09-05T13:41:35.256Z,1.65
2022-09-05T13:44:27.030Z,1.80
2022-09-05T13:47:30.654Z,1.60
2022-09-05T13:50:07.746Z,1.50
2022-09-05T13:52:39.696Z,1.77
2022-09-05T13:55:15.963Z,2.17
2022-09-05T13:57:58.179Z,1.80
2022-09-05T14:00:40.389Z,1.67
2022-09-05T14:03:39.247Z,1.45
2022-09-05T14:07:44.088Z,1.30
2022-09-05T14:10:08.444Z,1.63
2022-09-05T14:12:49.087Z,1.73
2022-09-05T14:15:35.143Z,1.85
2022-09-05T14:18:23.739Z,1.50
2022-09-05T14:21:17.791Z,1.80
2022-09-05T14:23:55.050Z,1.60
2022-09-05T14:26:33.795Z,1.63
2022-09-05T14:29:12.111Z,1.70
2022-09-05T14:37:35.266Z,1.80
2022-09-05T14:37:48.805Z,1.83
2022-09-05T14:38:24.547Z,1.90
2022-09-05T14:41:00.980Z,1.90
2022-09-05T14:43:32.154Z,1.85
2022-09-05T14:46:11.463Z,1.90
2022-09-05T14:48:54.115Z,2.10
2022-09-05T14:51:51.554Z,1.83
2022-09-05T15:02:46.250Z,2.10
2022-09-05T15:02:52.077Z,1.80
2022-09-05T15:03:12.430Z,1.90
2022-09-05T15:05:49.988Z,1.90
2022-09-05T15:09:53.618Z,1.80
2022-09-05T15:12:16.777Z,1.90
2022-09-05T15:14:04.405Z,2.10
2022-09-05T15:16:33.060Z,1.58
2022-09-05T15:19:00.552Z,1.45
2022-09-05T15:21:35.266Z,1.85
2022-09-05T15:24:21.336Z,1.75
2022-09-05T15:26:56.967Z,1.60
2022-09-05T15:29:26.065Z,1.92
2022-09-05T15:32:03.891Z,1.50
2022-09-05T15:34:38.546Z,1.88
2022-09-05T15:37:22.819Z,1.80
2022-09-05T15:40:07.623Z,2.03
2022-09-05T15:42:59.031Z,1.55
2022-09-05T15:45:36.447Z,1.70
2022-09-05T15:48:03.983Z,1.67
2022-09-05T15:50:31.267Z,1.70
2022-09-05T15:52:58.512Z,1.60
2022-09-05T15:55:26.316Z,1.33
2022-09-05T15:58:00.977Z,1.75
2022-09-05T16:00:41.437Z,1.58
2022-09-05T16:04:28.705Z,1.98
2022-09-05T16:10:28.350Z,1.73
2022-09-05T16:10:41.690Z,1.60
2022-09-05T16:12:16.909Z,1.55
2022-09-05T16:14:49.950Z,1.80
2022-09-05T16:23:18.432Z,1.50
2022-09-05T16:23:30.681Z,1.95
2022-09-05T16:23:40.598Z,1.75
2022-09-05T16:26:28.528Z,1.63
2022-09-05T16:29:02.393Z,1.50
2022-09-05T16:31:35.473Z,1.60
2022-09-05T16:34:08.477Z,1.67
2022-09-05T16:37:08.362Z,1.85
2022-09-05T16:39:38.875Z,1.70
2022-09-05T16:42:14.506Z,1.80
2022-09-05T16:44:54.851Z,2.13
2022-09-05T16:47:28.383Z,1.60
2022-09-05T16:50:16.817Z,1.70
2022-09-05T16:52:53.447Z,1.88
2022-09-05T16:55:35.931Z,2.10
2022-09-05T16:58:19.907Z,1.63
2022-09-05T17:00:57.367Z,2.07
2022-09-05T17:03:28.562Z,1.73
2022-09-05T17:06:26.618Z,1.75
2022-09-05T17:09:00.838Z,1.90
2022-09-05T17:11:51.010Z,2.42
2022-09-05T17:14:34.802Z,2.05
2022-09-05T17:17:20.379Z,2.20
2022-09-05T17:20:07.982Z,2.65
2022-09-05T17:28:29.972Z,2.20
2022-09-05T17:29:25.749Z,2.80
2022-09-05T17:29:45.824Z,2.47
2022-09-05T17:31:55.802Z,2.38
2022-09-05T17:34:41.828Z,2.22
2022-09-05T17:37:33.651Z,2.83
2022-09-05T17:40:30.039Z,2.78
2022-09-05T17:43:13.110Z,2.80
2022-09-05T17:46:14.315Z,2.85
2022-09-05T17:48:50.820Z,2.30
2022-09-05T17:51:50.849Z,2.28
2022-09-05T17:54:33.516Z,2.58
2022-09-05T17:57:26.824Z,2.47
2022-09-05T17:59:54.950Z,2.40
2022-09-05T18:02:22.211Z,2.50
2022-09-05T18:04:50.714Z,2.60
2022-09-05T18:07:28.496Z,2.60
2022-09-05T18:10:15.289Z,3.03
2022-09-05T18:13:13.025Z,2.30
2022-09-05T18:15:38.599Z,2.95
2022-09-05T18:18:08.655Z,2.75
2022-09-05T18:21:21.593Z,2.95
2022-09-05T18:23:54.354Z,2.58
2022-09-05T18:26:23.866Z,2.90
2022-09-05T18:29:03.815Z,2.90
2022-09-05T18:31:40.791Z,2.85
2022-09-05T18:34:15.168Z,2.40
2022-09-05T18:36:53.122Z,2.78
2022-09-05T18:39:38.641Z,2.92
2022-09-05T18:42:33.313Z,2.97
2022-09-05T18:45:14.521Z,2.80
2022-09-05T18:47:58.803Z,3.17
2022-09-05T18:50:32.360Z,3.20
2022-09-05T18:53:10.629Z,3.42
2022-09-05T18:56:20.225Z,3.65
2022-09-05T18:59:09.612Z,2.97
2022-09-05T19:02:41.094Z,3.28
2022-09-05T19:05:14.336Z,3.58
2022-09-05T19:07:47.912Z,3.75
2022-09-05T19:10:34.510Z,3.55
2022-09-05T19:13:23.977Z,4.07
2022-09-05T19:16:33.108Z,4.20
2022-09-05T19:19:18.331Z,4.05
2022-09-05T19:22:39.321Z,4.35
2022-09-05T19:24:46.189Z,4.50
2022-09-05T19:35:15.484Z,4.40
2022-09-05T19:36:54.140Z,4.43
2022-09-05T19:36:58.066Z,4.65
2022-09-05T19:37:04.965Z,4.85
2022-09-05T19:38:38.306Z,5.05
2022-09-05T19:47:34.075Z,4.40
2022-09-05T19:47:34.928Z,4.45
2022-09-05T19:47:39.630Z,4.90
2022-09-05T19:50:01.530Z,4.78
2022-09-05T19:52:28.883Z,4.95
2022-09-05T19:54:58.567Z,4.45
2022-09-05T19:57:25.863Z,4.55
2022-09-05T19:59:54.805Z,4.57
2022-09-05T20:02:35.262Z,4.43
2022-09-05T20:05:04.262Z,4.63
2022-09-05T20:07:32.054Z,4.32
2022-09-05T20:10:01.576Z,4.68
2022-09-05T20:12:36.592Z,4.68
2022-09-05T20:15:25.197Z,4.82
2022-09-05T20:18:20.084Z,4.90
2022-09-05T20:20:54.227Z,4.30
2022-09-05T20:23:24.072Z,5.35
2022-09-05T20:25:51.722Z,4.55
2022-09-05T20:28:21.834Z,4.55
2022-09-05T20:30:54.635Z,5.15
2022-09-05T20:33:27.467Z,4.47
2022-09-05T20:38:26.359Z,4.00
2022-09-05T20:43:17.746Z,4.28
2022-09-05T20:43:20.495Z,4.40
2022-09-05T20:44:50.380Z,4.80
2022-09-05T20:50:47.014Z,4.60
2022-09-05T20:54:06.958Z,4.53
2022-09-05T20:54:20.344Z,4.50
2022-09-05T20:56:10.929Z,4.55
2022-09-05T20:58:38.507Z,4.63
2022-09-05T21:01:21.705Z,4.85
2022-09-05T21:04:03.612Z,4.80
2022-09-05T21:06:40.437Z,5.15
2022-09-05T21:09:24.403Z,5.00
2022-09-05T21:11:54.724Z,4.53
2022-09-05T21:14:22.960Z,4.82
2022-09-05T21:17:00.741Z,4.53
2022-09-05T21:19:29.875Z,5.15
2022-09-05T21:22:09.123Z,5.40
2022-09-05T21:24:36.571Z,5.45
2022-09-05T21:27:16.691Z,4.63
2022-09-05T21:29:44.172Z,5.63
2022-09-05T21:32:14.003Z,5.85
2022-09-05T21:34:46.303Z,5.82
2022-09-05T21:37:14.941Z,5.82
2022-09-05T21:39:57.187Z,5.78
2022-09-05T21:46:18.984Z,5.53
2022-09-05T21:47:42.245Z,5.18
2022-09-05T21:48:07.942Z,5.70
2022-09-05T21:51:03.683Z,5.78
2022-09-05T21:59:26.993Z,5.97
2022-09-05T21:59:37.174Z,5.65
2022-09-05T22:02:08.241Z,6.13
2022-09-05T22:04:41.304Z,5.55
2022-09-05T22:07:21.669Z,5.28
2022-09-05T22:09:59.485Z,5.82
2022-09-05T22:12:31.397Z,5.82
2022-09-05T22:15:02.512Z,5.22
2022-09-05T22:17:43.370Z,5.97
2022-09-05T22:20:14.532Z,6.03
2022-09-05T22:22:41.852Z,5.45
2022-09-05T22:25:19.531Z,5.35
2022-09-05T22:28:10.485Z,5.35
2022-09-05T22:30:38.640Z,5.63
2022-09-05T22:33:06.343Z,6.05
2022-09-05T22:35:34.451Z,6.07
2022-09-05T22:38:16.480Z,5.72
2022-09-05T22:40:47.877Z,5.22
2022-09-05T22:43:16.640Z,4.43
2022-09-05T22:45:43.892Z,5.63
2022-09-05T22:48:14.622Z,5.68
2022-09-05T22:50:42.419Z,5.53
2022-09-05T22:53:10.380Z,5.25
2022-09-05T22:55:40.546Z,5.63
2022-09-05T22:58:08.897Z,5.60
2022-09-05T23:00:36.305Z,6.00
2022-09-05T23:03:06.161Z,5.78
2022-09-05T23:05:33.609Z,6.05
2022-09-05T23:08:01.028Z,5.57
2022-09-05T23:10:28.493Z,5.80
2022-09-05T23:12:55.926Z,5.50
2022-09-05T23:15:23.247Z,5.20
2022-09-05T23:18:00.251Z,5.85
2022-09-05T23:20:29.319Z,5.40
2022-09-05T23:22:56.790Z,5.55
2022-09-05T23:25:24.171Z,5.28
2022-09-05T23:27:51.448Z,5.88
2022-09-05T23:30:18.818Z,5.50
2022-09-05T23:32:46.839Z,5.95
2022-09-05T23:35:15.011Z,5.35
2022-09-05T23:37:46.098Z,5.43
2022-09-05T23:40:17.965Z,5.40
2022-09-05T23:42:58.819Z,5.22
2022-09-05T23:45:26.293Z,5.50
2022-09-05T23:47:53.576Z,5.55
2022-09-05T23:50:20.911Z,5.25
2022-09-05T23:52:48.244Z,5.65
2022-09-05T23:55:17.462Z,4.95
2022-09-05T23:57:44.784Z,5.22
